Time;durP1;ratioP1;P1;durP2;ratioP2;P2;SDS_P1;SDS_P2;PMS_P1;PMS_P2;Temp;Humidity;BMP_temperature;BMP_pressure;BME280_temperature;BME280_humidity;BME280_pressure;Samples;Min_cycle;Max_cycle;Signal;HPM_P1;HPM_P2
2022/04/29 00:02:22;;;;;;;11.25;5.60;;;;;;;;;;4953023;28;20059;-71
2022/04/29 00:04:54;;;;;;;6.68;3.30;;;;;;;;;;4960907;28;20062;-71
2022/04/29 00:07:25;;;;;;;3.83;1.92;;;;;;;;;;4972886;28;20058;-73
2022/04/29 00:09:56;;;;;;;2.97;1.40;;;;;;;;;;4957282;28;20217;-71
2022/04/29 00:12:26;;;;;;;2.33;0.90;;;;;;;;;;4972743;28;20066;-72
2022/04/29 00:14:58;;;;;;;2.30;1.05;;;;;;;;;;4938868;29;20538;-71
2022/04/29 00:17:29;;;;;;;2.03;1.05;;;;;;;;;;4953387;29;20055;-69
2022/04/29 00:20:00;;;;;;;3.10;1.50;;;;;;;;;;4937822;29;20491;-69
2022/04/29 00:22:31;;;;;;;3.83;1.52;;;;;;;;;;4953183;29;20581;-70
2022/04/29 00:25:03;;;;;;;4.18;1.42;;;;;;;;;;4953488;29;20059;-68
2022/04/29 00:27:33;;;;;;;3.45;1.20;;;;;;;;;;4914604;29;20059;-68
2022/04/29 00:30:05;;;;;;;2.92;1.30;;;;;;;;;;4915140;29;20096;-67
2022/04/29 00:32:37;;;;;;;3.17;1.45;;;;;;;;;;4914891;29;20409;-67
2022/04/29 00:35:10;;;;;;;3.53;1.55;;;;;;;;;;4930837;28;20051;-67
2022/04/29 00:37:50;;;;;;;4.72;1.92;;;;;;;;;;4972269;28;20051;-67
2022/04/29 00:40:23;;;;;;;5.07;2.10;;;;;;;;;;5010000;28;20054;-67
2022/04/29 00:42:55;;;;;;;4.28;1.85;;;;;;;;;;4982200;28;20547;-66
2022/04/29 00:45:26;;;;;;;4.25;1.90;;;;;;;;;;5030529;28;20052;-67
2022/04/29 00:47:58;;;;;;;4.03;1.83;;;;;;;;;;5031259;28;20433;-66
2022/04/29 00:50:30;;;;;;;3.63;1.60;;;;;;;;;;5030971;28;20085;-66
2022/04/29 00:53:02;;;;;;;3.78;1.58;;;;;;;;;;4982074;28;20061;-66
2022/04/29 00:55:36;;;;;;;2.75;1.40;;;;;;;;;;5010756;28;20494;-66
2022/04/29 00:58:21;;;;;;;5.95;1.58;;;;;;;;;;4978147;28;20060;-66
2022/04/29 01:00:53;;;;;;;5.05;1.52;;;;;;;;;;5030115;28;20072;-66
2022/04/29 01:03:24;;;;;;;;;;;;;;;;;;5031327;28;20524;-67
2022/04/29 01:05:55;;;;;;;2.88;1.40;;;;;;;;;;5013714;28;19939;-71
2022/04/29 01:08:27;;;;;;;2.65;1.30;;;;;;;;;;5050627;28;20049;-72
2022/04/29 01:10:58;;;;;;;4.78;1.40;;;;;;;;;;5050360;28;20065;-72
2022/04/29 01:13:29;;;;;;;4.35;1.88;;;;;;;;;;4994192;28;20461;-69
2022/04/29 01:16:00;;;;;;;4.82;1.70;;;;;;;;;;4994722;28;20665;-72
2022/04/29 01:18:31;;;;;;;5.00;1.45;;;;;;;;;;5010690;28;20050;-70
2022/04/29 01:21:05;;;;;;;5.28;3.35;;;;;;;;;;4979083;28;20058;-70
2022/04/29 01:23:36;;;;;;;3.90;1.75;;;;;;;;;;4980077;28;20297;-69
2022/04/29 01:26:09;;;;;;;3.13;1.55;;;;;;;;;;4958666;28;20058;-68
2022/04/29 01:28:45;;;;;;;3.97;1.60;;;;;;;;;;4971265;28;20074;-67
2022/04/29 01:31:18;;;;;;;6.55;1.67;;;;;;;;;;4955229;28;20047;-67
2022/04/29 01:33:51;;;;;;;3.83;2.30;;;;;;;;;;4971600;28;20054;-67
2022/04/29 01:36:21;;;;;;;;;;;;;;;;;;4971619;28;20046;-67
2022/04/29 01:38:52;;;;;;;8.98;1.30;;;;;;;;;;4965292;28;19921;-67
2022/04/29 01:41:23;;;;;;;2.88;1.42;;;;;;;;;;4990729;28;20525;-67
2022/04/29 01:43:54;;;;;;;5.97;1.52;;;;;;;;;;4975125;28;20518;-66
2022/04/29 01:46:25;;;;;;;3.03;1.30;;;;;;;;;;4970917;28;20380;-66
2022/04/29 01:49:15;;;;;;;5.22;1.52;;;;;;;;;;4944265;28;20062;-67
2022/04/29 01:51:57;;;;;;;2.72;1.33;;;;;;;;;;5004041;28;20054;-66
2022/04/29 01:54:28;;;;;;;3.90;1.75;;;;;;;;;;4978253;28;20050;-67
2022/04/29 01:56:59;;;;;;;4.35;1.50;;;;;;;;;;5009801;28;20054;-66
2022/04/29 01:59:31;;;;;;;3.15;1.30;;;;;;;;;;4990157;28;20047;-66
2022/04/29 02:02:12;;;;;;;5.07;1.40;;;;;;;;;;4941097;28;20053;-66
2022/04/29 02:04:44;;;;;;;4.07;1.90;;;;;;;;;;4990023;28;20103;-66
2022/04/29 02:07:18;;;;;;;4.68;2.28;;;;;;;;;;4988308;28;20065;-64
2022/04/29 02:09:49;;;;;;;5.15;2.17;;;;;;;;;;4969991;28;20410;-66
2022/04/29 02:12:20;;;;;;;7.60;3.22;;;;;;;;;;4951603;28;20059;-66
2022/04/29 02:14:58;;;;;;;5.82;2.55;;;;;;;;;;4930499;29;20055;-66
2022/04/29 02:17:36;;;;;;;5.85;2.13;;;;;;;;;;4932355;29;20059;-66
2022/04/29 02:20:09;;;;;;;6.97;2.92;;;;;;;;;;4931937;29;20500;-66
2022/04/29 02:22:41;;;;;;;7.35;2.80;;;;;;;;;;4932281;29;20055;-64
2022/04/29 02:25:12;;;;;;;6.10;2.28;;;;;;;;;;4910088;29;20505;-66
2022/04/29 02:27:44;;;;;;;4.07;2.05;;;;;;;;;;4894586;29;20056;-67
2022/04/29 02:30:15;;;;;;;8.02;2.83;;;;;;;;;;4912671;29;20074;-71
2022/04/29 02:32:47;;;;;;;5.60;3.00;;;;;;;;;;4912877;29;20052;-69
2022/04/29 02:35:17;;;;;;;6.55;2.83;;;;;;;;;;4883968;29;20057;-72
2022/04/29 02:37:49;;;;;;;5.88;2.67;;;;;;;;;;4912956;29;20194;-67
2022/04/29 02:40:21;;;;;;;6.60;2.90;;;;;;;;;;4905175;29;20053;-70
2022/04/29 02:42:51;;;;;;;;;;;;;;;;;;4918608;29;20053;-73
2022/04/29 02:45:22;;;;;;;6.38;2.72;;;;;;;;;;4900164;29;19930;-70
2022/04/29 02:47:54;;;;;;;5.60;2.20;;;;;;;;;;4894237;29;20056;-67
2022/04/29 02:50:26;;;;;;;4.55;2.13;;;;;;;;;;4894609;29;20058;-70
2022/04/29 02:53:05;;;;;;;4.63;2.35;;;;;;;;;;4927548;29;20431;-71
2022/04/29 02:55:36;;;;;;;6.55;2.40;;;;;;;;;;4932140;29;20063;-69
2022/04/29 02:58:35;;;;;;;3.83;2.10;;;;;;;;;;4986374;28;20054;-69
2022/04/29 03:01:06;;;;;;;4.28;2.55;;;;;;;;;;4973033;28;20055;-68
2022/04/29 03:03:38;;;;;;;3.22;1.77;;;;;;;;;;4941705;28;20050;-67
2022/04/29 03:06:09;;;;;;;4.78;2.05;;;;;;;;;;4951175;28;20055;-71
2022/04/29 03:08:40;;;;;;;4.20;2.45;;;;;;;;;;4935298;28;20047;-70
2022/04/29 03:11:11;;;;;;;4.20;2.08;;;;;;;;;;4947041;29;20067;-66
2022/04/29 03:13:43;;;;;;;8.48;2.83;;;;;;;;;;4950870;29;20051;-67
2022/04/29 03:16:15;;;;;;;6.90;3.00;;;;;;;;;;4900854;29;20060;-66
2022/04/29 03:18:46;;;;;;;5.63;3.20;;;;;;;;;;4923951;29;20052;-66
2022/04/29 03:21:18;;;;;;;5.85;3.13;;;;;;;;;;4863807;29;20061;-65
2022/04/29 03:23:50;;;;;;;6.07;3.10;;;;;;;;;;4894164;29;20060;-65
2022/04/29 03:26:21;;;;;;;6.47;3.13;;;;;;;;;;4950863;28;20055;-65
2022/04/29 03:28:52;;;;;;;5.40;2.72;;;;;;;;;;4938258;29;20051;-65
2022/04/29 03:31:23;;;;;;;5.22;2.47;;;;;;;;;;4915876;29;20067;-65
2022/04/29 03:34:20;;;;;;;5.53;2.20;;;;;;;;;;4869287;29;20054;-65
2022/04/29 03:36:52;;;;;;;5.88;2.70;;;;;;;;;;4859435;29;20050;-65
2022/04/29 03:39:23;;;;;;;;;;;;;;;;;;4841465;29;20058;-65
2022/04/29 03:41:53;;;;;;;4.65;2.33;;;;;;;;;;4896657;29;20511;-65
2022/04/29 03:44:24;;;;;;;4.82;2.25;;;;;;;;;;4925892;29;20063;-65
2022/04/29 03:46:55;;;;;;;4.97;2.83;;;;;;;;;;4903311;29;20048;-65
2022/04/29 03:49:44;;;;;;;4.00;2.22;;;;;;;;;;4908185;29;20063;-65
2022/04/29 03:52:24;;;;;;;4.95;2.50;;;;;;;;;;4934525;29;20056;-65
2022/04/29 03:54:56;;;;;;;6.00;3.28;;;;;;;;;;4898091;29;20550;-65
2022/04/29 03:57:28;;;;;;;5.15;2.42;;;;;;;;;;4913947;29;20063;-64
2022/04/29 03:59:58;;;;;;;3.92;2.22;;;;;;;;;;4896315;29;20645;-64
2022/04/29 04:02:33;;;;;;;3.88;2.38;;;;;;;;;;4840654;29;20054;-64
2022/04/29 04:05:04;;;;;;;4.45;2.42;;;;;;;;;;4810101;29;20058;-64
2022/04/29 04:07:36;;;;;;;5.93;2.70;;;;;;;;;;4825464;29;20062;-64
2022/04/29 04:10:29;;;;;;;4.20;2.60;;;;;;;;;;4846510;29;20057;-64
2022/04/29 04:13:00;;;;;;;5.28;2.42;;;;;;;;;;4859204;29;20505;-64
2022/04/29 04:15:50;;;;;;;5.65;3.13;;;;;;;;;;4877687;29;20056;-64
2022/04/29 04:18:21;;;;;;;6.10;2.72;;;;;;;;;;4843293;29;20132;-64
2022/04/29 04:20:53;;;;;;;6.63;2.60;;;;;;;;;;4856618;29;20497;-64
2022/04/29 04:23:23;;;;;;;7.88;3.38;;;;;;;;;;4877805;29;20065;-64
2022/04/29 04:25:56;;;;;;;6.65;3.40;;;;;;;;;;4877705;29;20068;-64
2022/04/29 04:28:28;;;;;;;6.55;2.80;;;;;;;;;;4877674;29;20064;-64
2022/04/29 04:31:02;;;;;;;5.45;3.17;;;;;;;;;;4860335;29;20053;-64
2022/04/29 04:33:45;;;;;;;12.40;3.70;;;;;;;;;;4890619;29;20049;-64
2022/04/29 04:36:16;;;;;;;9.73;3.05;;;;;;;;;;4908620;29;20537;-64
2022/04/29 04:38:47;;;;;;;8.32;3.00;;;;;;;;;;4855027;29;20060;-63
2022/04/29 04:41:19;;;;;;;11.35;3.45;;;;;;;;;;4894887;29;20547;-64
2022/04/29 04:43:49;;;;;;;7.25;3.22;;;;;;;;;;4896327;29;20509;-64
2022/04/29 04:46:20;;;;;;;7.20;3.10;;;;;;;;;;4895995;29;20139;-64
2022/04/29 04:49:14;;;;;;;16.00;2.88;;;;;;;;;;4895579;29;20057;-64
2022/04/29 04:52:11;;;;;;;8.43;2.63;;;;;;;;;;4898889;29;20052;-64
2022/04/29 04:54:42;;;;;;;16.40;2.95;;;;;;;;;;4914357;29;20397;-64
2022/04/29 04:57:13;;;;;;;13.63;3.03;;;;;;;;;;4899348;29;20060;-64
2022/04/29 04:59:44;;;;;;;13.25;2.63;;;;;;;;;;4920716;29;20051;-64
2022/04/29 05:02:15;;;;;;;9.20;3.05;;;;;;;;;;4951958;29;20051;-64
2022/04/29 05:05:30;;;;;;;8.63;2.47;;;;;;;;;;4926012;28;20052;-64
2022/04/29 05:08:06;;;;;;;9.95;2.45;;;;;;;;;;4894004;29;20528;-65
2022/04/29 05:10:37;;;;;;;11.10;2.90;;;;;;;;;;4914029;29;20044;-65
2022/04/29 05:13:08;;;;;;;21.08;3.00;;;;;;;;;;4914136;29;20052;-65
2022/04/29 05:15:42;;;;;;;19.42;2.13;;;;;;;;;;4933143;29;20052;-65
2022/04/29 05:18:23;;;;;;;19.05;2.08;;;;;;;;;;4900433;29;20060;-65
2022/04/29 05:21:04;;;;;;;11.48;1.85;;;;;;;;;;4876148;29;20060;-64
2022/04/29 05:23:36;;;;;;;10.20;2.42;;;;;;;;;;4876580;29;20061;-65
2022/04/29 05:26:33;;;;;;;5.70;2.15;;;;;;;;;;4850950;29;20065;-65
2022/04/29 05:29:22;;;;;;;5.00;2.33;;;;;;;;;;4876353;29;20057;-65
2022/04/29 05:31:54;;;;;;;6.60;2.35;;;;;;;;;;4844756;29;20142;-65
2022/04/29 05:34:58;;;;;;;4.43;2.08;;;;;;;;;;4876672;29;20061;-65
2022/04/29 05:37:48;;;;;;;6.35;2.20;;;;;;;;;;4783019;29;20539;-66
2022/04/29 05:43:12;;;;;;;5.28;1.80;;;;;;;;;;4839256;29;20058;-66
2022/04/29 05:45:43;;;;;;;3.05;1.42;;;;;;;;;;4847448;29;20066;-66
2022/04/29 05:48:14;;;;;;;5.53;1.90;;;;;;;;;;4854485;29;20063;-67
2022/04/29 05:50:46;;;;;;;3.90;1.80;;;;;;;;;;4871814;29;20053;-67
2022/04/29 05:53:17;;;;;;;4.63;1.85;;;;;;;;;;4863587;29;20069;-66
2022/04/29 05:55:57;;;;;;;3.80;1.67;;;;;;;;;;4847267;29;20180;-68
2022/04/29 05:58:28;;;;;;;3.22;1.50;;;;;;;;;;4846660;29;20050;-67
2022/04/29 06:01:19;;;;;;;2.28;1.42;;;;;;;;;;4795517;29;20503;-68
2022/04/29 06:03:50;;;;;;;2.90;1.35;;;;;;;;;;4866942;29;20172;-67
2022/04/29 06:06:24;;;;;;;8.02;1.60;;;;;;;;;;4883120;29;20053;-68
2022/04/29 06:08:55;;;;;;;5.50;1.40;;;;;;;;;;4910275;29;20056;-67
2022/04/29 06:11:25;;;;;;;2.25;1.15;;;;;;;;;;4893852;29;20056;-68
2022/04/29 06:13:57;;;;;;;2.60;1.52;;;;;;;;;;4913127;29;20048;-67
2022/04/29 06:17:03;;;;;;;2.00;1.15;;;;;;;;;;4913380;29;20060;-67
2022/04/29 06:20:02;;;;;;;2.38;1.27;;;;;;;;;;4889556;29;20048;-67
2022/04/29 06:22:56;;;;;;;4.78;1.20;;;;;;;;;;4913609;29;20055;-66
2022/04/29 06:25:32;;;;;;;1.85;0.90;;;;;;;;;;4931974;29;20064;-66
2022/04/29 06:28:03;;;;;;;1.60;0.90;;;;;;;;;;4900376;29;20047;-66
2022/04/29 06:30:34;;;;;;;2.60;1.00;;;;;;;;;;4918635;29;20057;-66
2022/04/29 06:33:47;;;;;;;1.08;0.80;;;;;;;;;;4910768;29;20066;-68
2022/04/29 06:36:20;;;;;;;2.35;0.93;;;;;;;;;;4883440;29;20060;-68
2022/04/29 06:38:56;;;;;;;1.25;0.75;;;;;;;;;;4875458;29;20064;-67
2022/04/29 06:41:45;;;;;;;1.50;0.82;;;;;;;;;;4839792;29;20054;-66
2022/04/29 06:44:38;;;;;;;1.40;0.80;;;;;;;;;;4839009;29;20091;-66
2022/04/29 06:47:27;;;;;;;2.65;1.27;;;;;;;;;;4838653;29;20062;-66
2022/04/29 06:50:16;;;;;;;2.28;0.93;;;;;;;;;;4838987;29;20050;-66
2022/04/29 06:53:10;;;;;;;1.95;0.82;;;;;;;;;;4862280;29;20061;-66
2022/04/29 06:55:41;;;;;;;4.43;1.10;;;;;;;;;;4904988;29;20053;-66
2022/04/29 06:58:12;;;;;;;2.08;0.95;;;;;;;;;;4841653;29;20136;-66
2022/04/29 07:00:43;;;;;;;4.22;0.77;;;;;;;;;;4909088;29;20058;-65
2022/04/29 07:03:14;;;;;;;3.03;0.73;;;;;;;;;;4896617;29;20053;-65
2022/04/29 07:05:46;;;;;;;1.35;0.82;;;;;;;;;;4894278;29;20064;-65
2022/04/29 07:08:20;;;;;;;2.08;0.95;;;;;;;;;;4913147;29;20091;-65
2022/04/29 07:11:09;;;;;;;0.98;0.65;;;;;;;;;;4910247;29;20056;-65
2022/04/29 07:13:50;;;;;;;1.80;0.90;;;;;;;;;;4935683;28;20404;-65
2022/04/29 07:16:21;;;;;;;2.33;1.13;;;;;;;;;;4985350;28;20054;-65
2022/04/29 07:19:15;;;;;;;1.90;1.10;;;;;;;;;;4993107;28;20042;-65
2022/04/29 07:21:46;;;;;;;1.60;0.82;;;;;;;;;;4993135;28;20090;-65
2022/04/29 07:24:18;;;;;;;2.80;0.98;;;;;;;;;;4945521;28;20090;-65
2022/04/29 07:26:49;;;;;;;2.83;0.93;;;;;;;;;;4973675;28;20051;-65
2022/04/29 07:29:20;;;;;;;1.25;0.63;;;;;;;;;;4954162;28;20055;-65
2022/04/29 07:31:56;;;;;;;2.42;0.80;;;;;;;;;;4934765;29;20504;-65
2022/04/29 07:43:54;;;;;;;4.80;0.90;;;;;;;;;;4934671;29;20063;-64
2022/04/29 07:46:25;;;;;;;1.60;0.93;;;;;;;;;;4915449;29;20059;-65
2022/04/29 07:49:01;;;;;;;1.73;0.80;;;;;;;;;;4916335;29;20504;-65
2022/04/29 07:51:32;;;;;;;2.65;1.00;;;;;;;;;;4931918;29;20068;-65
2022/04/29 07:54:04;;;;;;;2.80;0.73;;;;;;;;;;4953751;28;20051;-65
2022/04/29 07:56:36;;;;;;;2.28;0.75;;;;;;;;;;4953397;28;20078;-65
2022/04/29 07:59:07;;;;;;;1.17;0.63;;;;;;;;;;4953908;28;20054;-65
2022/04/29 08:01:43;;;;;;;1.90;0.90;;;;;;;;;;4934079;29;20051;-65
2022/04/29 08:04:17;;;;;;;0.95;0.50;;;;;;;;;;4950659;28;20086;-65
2022/04/29 08:06:48;;;;;;;1.52;0.75;;;;;;;;;;4932852;28;20066;-65
2022/04/29 08:09:33;;;;;;;2.15;1.27;;;;;;;;;;4959076;28;20126;-65
2022/04/29 08:12:13;;;;;;;3.22;0.90;;;;;;;;;;4958298;28;20058;-65
2022/04/29 08:15:12;;;;;;;2.47;1.15;;;;;;;;;;4972188;28;20058;-65
2022/04/29 08:17:51;;;;;;;1.88;1.00;;;;;;;;;;4960854;28;20063;-65
2022/04/29 08:20:22;;;;;;;2.25;0.90;;;;;;;;;;4991894;28;20065;-65
2022/04/29 08:22:54;;;;;;;1.52;0.75;;;;;;;;;;4952296;28;20047;-65
2022/04/29 08:25:27;;;;;;;2.08;1.00;;;;;;;;;;4933980;29;20060;-65
2022/04/29 08:28:00;;;;;;;2.30;1.25;;;;;;;;;;4972108;28;20074;-64
2022/04/29 08:30:31;;;;;;;3.13;0.90;;;;;;;;;;4911312;29;20441;-65
2022/04/29 08:33:03;;;;;;;2.40;0.90;;;;;;;;;;4911613;29;20064;-64
2022/04/29 08:35:42;;;;;;;1.40;0.90;;;;;;;;;;4952825;28;20196;-65
2022/04/29 08:38:14;;;;;;;2.20;1.20;;;;;;;;;;4951922;28;20058;-65
2022/04/29 08:40:52;;;;;;;5.28;1.00;;;;;;;;;;4952732;28;20066;-64
2022/04/29 08:43:31;;;;;;;2.35;1.05;;;;;;;;;;4952620;28;20054;-65
2022/04/29 08:46:06;;;;;;;2.22;1.08;;;;;;;;;;4933250;29;20059;-65
2022/04/29 08:48:56;;;;;;;8.32;1.10;;;;;;;;;;4933724;29;20048;-65
2022/04/29 08:51:27;;;;;;;2.38;1.00;;;;;;;;;;4933496;29;20043;-65
2022/04/29 08:54:01;;;;;;;2.65;1.50;;;;;;;;;;4933399;29;20059;-64
2022/04/29 08:59:29;;;;;;;4.38;1.35;;;;;;;;;;4932128;29;20412;-64
2022/04/29 09:01:59;;;;;;;2.53;0.93;;;;;;;;;;4912866;29;20079;-65
2022/04/29 09:04:30;;;;;;;2.85;1.25;;;;;;;;;;4876954;29;20064;-64
2022/04/29 09:07:01;;;;;;;3.63;1.10;;;;;;;;;;4876317;29;20556;-65
2022/04/29 09:09:32;;;;;;;1.70;0.90;;;;;;;;;;4895840;29;20056;-65
2022/04/29 09:12:16;;;;;;;2.53;1.17;;;;;;;;;;4914095;29;20055;-65
2022/04/29 09:14:47;;;;;;;1.73;1.02;;;;;;;;;;4914270;29;20417;-65
2022/04/29 09:17:28;;;;;;;2.40;1.20;;;;;;;;;;4914370;29;20067;-64
2022/04/29 09:19:59;;;;;;;2.80;1.02;;;;;;;;;;4875356;29;20049;-65
2022/04/29 09:22:32;;;;;;;2.30;1.15;;;;;;;;;;4876613;29;20049;-64
2022/04/29 09:25:15;;;;;;;3.95;0.82;;;;;;;;;;4895338;29;20075;-64
2022/04/29 09:28:06;;;;;;;2.00;0.82;;;;;;;;;;4895248;29;20044;-65
2022/04/29 09:31:12;;;;;;;2.47;1.17;;;;;;;;;;4958035;28;20368;-64
2022/04/29 09:33:56;;;;;;;1.83;1.05;;;;;;;;;;4978960;28;20395;-64
2022/04/29 09:36:39;;;;;;;1.95;0.90;;;;;;;;;;4976994;28;20053;-64
2022/04/29 09:39:28;;;;;;;3.20;0.73;;;;;;;;;;4990733;28;20174;-64
2022/04/29 09:42:01;;;;;;;2.72;1.33;;;;;;;;;;4990483;28;20061;-64
2022/04/29 09:44:36;;;;;;;1.70;0.90;;;;;;;;;;4942545;28;20050;-64
2022/04/29 09:47:13;;;;;;;3.70;0.95;;;;;;;;;;4990967;28;20054;-65
2022/04/29 09:49:56;;;;;;;1.83;0.98;;;;;;;;;;4931978;29;20048;-65
2022/04/29 09:52:31;;;;;;;3.78;1.17;;;;;;;;;;4913899;29;20071;-64
2022/04/29 09:55:18;;;;;;;3.28;0.90;;;;;;;;;;4913851;29;20060;-64
2022/04/29 09:57:51;;;;;;;2.72;0.73;;;;;;;;;;4898211;29;20056;-64
2022/04/29 10:00:22;;;;;;;4.43;0.77;;;;;;;;;;4913798;29;20064;-64
2022/04/29 10:02:53;;;;;;;5.13;1.00;;;;;;;;;;4927799;29;20044;-65
2022/04/29 10:05:28;;;;;;;3.15;1.00;;;;;;;;;;4972141;28;20383;-65
2022/04/29 10:08:08;;;;;;;17.77;7.28;;;;;;;;;;4982767;28;20061;-65
2022/04/29 10:10:39;;;;;;;22.20;8.68;;;;;;;;;;4974807;28;20054;-65
2022/04/29 10:13:11;;;;;;;9.13;3.13;;;;;;;;;;4935219;29;20059;-65
2022/04/29 10:15:46;;;;;;;1.52;1.08;;;;;;;;;;4952056;28;20058;-65
2022/04/29 10:21:54;;;;;;;2.63;1.00;;;;;;;;;;4971206;28;20047;-65
2022/04/29 10:24:25;;;;;;;2.22;0.95;;;;;;;;;;4951502;29;20067;-64
2022/04/29 10:26:58;;;;;;;4.88;0.98;;;;;;;;;;4929748;29;20066;-65
2022/04/29 10:29:29;;;;;;;3.65;1.58;;;;;;;;;;4951176;29;20059;-65
2022/04/29 10:32:10;;;;;;;2.45;0.90;;;;;;;;;;4903698;29;20059;-65
2022/04/29 10:34:41;;;;;;;2.50;0.98;;;;;;;;;;4920345;29;20060;-65
2022/04/29 10:37:14;;;;;;;3.33;1.02;;;;;;;;;;4935916;29;20048;-65
2022/04/29 10:40:11;;;;;;;2.38;1.02;;;;;;;;;;4935883;29;20102;-65
2022/04/29 10:43:09;;;;;;;3.97;1.50;;;;;;;;;;4889608;29;20175;-66
2022/04/29 10:46:03;;;;;;;5.70;2.47;;;;;;;;;;4935802;29;20090;-66
2022/04/29 10:48:47;;;;;;;5.82;2.20;;;;;;;;;;4935477;29;20051;-66
2022/04/29 10:51:37;;;;;;;2.50;1.52;;;;;;;;;;4899611;29;20461;-66
2022/04/29 10:54:35;;;;;;;4.38;1.67;;;;;;;;;;4935681;29;20464;-66
2022/04/29 10:57:43;;;;;;;3.13;1.73;;;;;;;;;;4898627;29;20056;-67
2022/04/29 11:00:27;;;;;;;2.20;1.27;;;;;;;;;;4860054;29;20057;-67
2022/04/29 11:03:41;;;;;;;5.00;1.10;;;;;;;;;;4877169;29;20053;-66
2022/04/29 11:06:13;;;;;;;2.55;1.00;;;;;;;;;;4911977;29;20061;-66
2022/04/29 11:08:47;;;;;;;;;;;;;;;;;;4898320;29;20064;-66
2022/04/29 11:11:38;;;;;;;1.83;0.90;;;;;;;;;;4897879;29;19934;-66
2022/04/29 11:14:51;;;;;;;6.25;1.20;;;;;;;;;;4897734;29;20056;-66
2022/04/29 11:17:43;;;;;;;6.10;1.48;;;;;;;;;;4884605;29;20056;-66
2022/04/29 11:20:19;;;;;;;3.83;1.70;;;;;;;;;;4897150;29;20056;-66
2022/04/29 11:25:54;;;;;;;4.35;1.52;;;;;;;;;;4892302;29;20561;-67
2022/04/29 11:28:35;;;;;;;8.13;1.90;;;;;;;;;;4873607;29;20054;-67
2022/04/29 11:31:24;;;;;;;2.35;1.15;;;;;;;;;;4870468;29;20066;-67
2022/04/29 11:34:06;;;;;;;3.17;1.17;;;;;;;;;;4863456;29;20073;-67
2022/04/29 11:36:38;;;;;;;3.33;1.67;;;;;;;;;;4878662;29;20072;-67
2022/04/29 11:39:17;;;;;;;5.10;1.45;;;;;;;;;;4847809;29;20069;-67
2022/04/29 11:41:56;;;;;;;9.10;3.22;;;;;;;;;;4878001;29;20049;-67
2022/04/29 11:44:34;;;;;;;3.63;1.52;;;;;;;;;;4878192;29;20072;-67
2022/04/29 11:47:06;;;;;;;9.90;3.13;;;;;;;;;;4878440;29;20061;-67
2022/04/29 11:49:44;;;;;;;2.80;1.33;;;;;;;;;;4878231;29;20057;-66
2022/04/29 11:52:21;;;;;;;5.25;3.00;;;;;;;;;;4959691;28;20499;-66
2022/04/29 11:54:59;;;;;;;4.82;2.60;;;;;;;;;;4977010;28;20058;-66
2022/04/29 11:57:33;;;;;;;3.63;1.70;;;;;;;;;;4985413;28;20055;-66
2022/04/29 12:00:06;;;;;;;3.30;1.70;;;;;;;;;;4973018;28;20054;-66
2022/04/29 12:02:47;;;;;;;4.40;2.10;;;;;;;;;;4959703;28;20047;-66
2022/04/29 12:05:21;;;;;;;5.72;2.60;;;;;;;;;;4973004;28;20070;-66
2022/04/29 12:07:54;;;;;;;4.10;2.00;;;;;;;;;;4969806;28;20091;-66
2022/04/29 12:10:35;;;;;;;4.15;1.38;;;;;;;;;;4962779;28;20054;-66
2022/04/29 12:13:07;;;;;;;4.03;1.58;;;;;;;;;;4992552;28;20507;-66
2022/04/29 12:15:45;;;;;;;3.10;1.70;;;;;;;;;;4953240;29;20051;-66
2022/04/29 12:18:16;;;;;;;3.20;1.55;;;;;;;;;;4953642;29;20082;-66
2022/04/29 12:20:59;;;;;;;3.70;2.10;;;;;;;;;;4953013;28;20051;-66
2022/04/29 12:23:36;;;;;;;3.88;1.80;;;;;;;;;;4933955;29;20515;-66
2022/04/29 12:26:07;;;;;;;4.75;2.58;;;;;;;;;;4934309;29;20467;-65
2022/04/29 12:28:38;;;;;;;3.42;1.52;;;;;;;;;;4953055;29;20051;-65
2022/04/29 12:37:05;;;;;;;5.38;1.70;;;;;;;;;;4918646;29;20567;-65
2022/04/29 12:39:47;;;;;;;5.07;2.17;;;;;;;;;;4933789;29;20056;-65
2022/04/29 12:42:20;;;;;;;6.47;1.85;;;;;;;;;;4929165;29;20067;-65
2022/04/29 12:45:10;;;;;;;4.25;1.40;;;;;;;;;;4914559;29;20121;-65
2022/04/29 12:48:07;;;;;;;5.30;1.88;;;;;;;;;;4907683;29;20060;-65
2022/04/29 12:50:43;;;;;;;2.63;1.10;;;;;;;;;;4933731;29;20060;-65
2022/04/29 12:53:20;;;;;;;2.65;1.17;;;;;;;;;;4918408;29;20047;-66
2022/04/29 12:55:52;;;;;;;4.88;1.48;;;;;;;;;;4911115;29;20602;-66
2022/04/29 12:58:30;;;;;;;3.63;1.40;;;;;;;;;;4924770;29;20060;-66
2022/04/29 13:01:04;;;;;;;2.80;1.20;;;;;;;;;;4914053;29;20056;-66
2022/04/29 13:03:39;;;;;;;3.95;1.60;;;;;;;;;;4933056;29;20066;-66
2022/04/29 13:06:41;;;;;;;8.43;1.10;;;;;;;;;;4914443;29;20060;-66
2022/04/29 13:09:13;;;;;;;3.05;1.35;;;;;;;;;;4907618;29;20053;-65
2022/04/29 13:11:47;;;;;;;3.53;1.52;;;;;;;;;;4852234;29;20549;-65
2022/04/29 13:14:39;;;;;;;1.65;0.98;;;;;;;;;;4867504;29;20053;-66
2022/04/29 13:17:11;;;;;;;4.57;1.33;;;;;;;;;;4858039;29;20053;-65
2022/04/29 13:19:42;;;;;;;2.30;0.93;;;;;;;;;;4844465;29;20440;-66
2022/04/29 13:22:13;;;;;;;4.60;1.17;;;;;;;;;;4833752;29;20543;-66
2022/04/29 13:24:46;;;;;;;1.88;0.77;;;;;;;;;;4876267;29;20049;-65
2022/04/29 13:27:17;;;;;;;4.38;1.42;;;;;;;;;;4876382;29;20497;-65
2022/04/29 13:29:48;;;;;;;1.90;0.98;;;;;;;;;;4894862;29;20181;-65
2022/04/29 13:32:18;;;;;;;2.38;0.90;;;;;;;;;;4906875;29;20052;-66
2022/04/29 13:34:52;;;;;;;2.47;1.10;;;;;;;;;;4913395;29;20052;-65
2022/04/29 13:37:24;;;;;;;3.05;0.88;;;;;;;;;;4879410;29;20057;-65
2022/04/29 13:39:55;;;;;;;2.58;1.10;;;;;;;;;;4913685;29;20052;-65
2022/04/29 13:42:26;;;;;;;3.53;1.30;;;;;;;;;;4922835;29;20052;-65
2022/04/29 13:45:05;;;;;;;3.47;1.38;;;;;;;;;;4897782;29;20052;-65
2022/04/29 13:47:38;;;;;;;2.92;1.38;;;;;;;;;;4913867;29;20056;-64
2022/04/29 13:50:09;;;;;;;2.50;1.35;;;;;;;;;;4913685;29;20071;-65
2022/04/29 13:55:30;;;;;;;3.85;1.10;;;;;;;;;;4912912;29;20395;-65
2022/04/29 13:58:02;;;;;;;4.22;1.52;;;;;;;;;;4883623;29;20060;-65
2022/04/29 14:00:34;;;;;;;3.75;1.90;;;;;;;;;;4913808;29;20064;-65
2022/04/29 14:03:05;;;;;;;;;;;;;;;;;;4946177;29;20051;-65
2022/04/29 14:05:36;;;;;;;8.05;2.10;;;;;;;;;;4934984;29;19930;-65
2022/04/29 14:08:08;;;;;;;5.03;2.15;;;;;;;;;;4936405;29;20055;-65
2022/04/29 14:10:39;;;;;;;4.93;2.50;;;;;;;;;;4933220;29;20052;-64
2022/04/29 14:13:18;;;;;;;4.22;1.92;;;;;;;;;;4903575;29;20059;-64
2022/04/29 14:15:49;;;;;;;9.85;4.10;;;;;;;;;;4951244;28;20050;-65
2022/04/29 14:18:20;;;;;;;7.90;4.10;;;;;;;;;;4951604;28;20055;-64
2022/04/29 14:20:51;;;;;;;8.30;4.43;;;;;;;;;;4967468;28;20062;-65
2022/04/29 14:23:22;;;;;;;4.57;2.55;;;;;;;;;;4951321;28;20047;-65
2022/04/29 14:25:53;;;;;;;6.85;2.90;;;;;;;;;;4931880;29;20062;-64
2022/04/29 14:28:23;;;;;;;6.32;2.72;;;;;;;;;;4932253;29;20063;-65
2022/04/29 14:30:54;;;;;;;4.22;1.98;;;;;;;;;;4960147;28;20058;-65
2022/04/29 14:33:25;;;;;;;4.00;1.98;;;;;;;;;;4955274;28;20055;-65
2022/04/29 14:35:56;;;;;;;4.47;2.20;;;;;;;;;;4970207;28;20062;-64
2022/04/29 14:38:27;;;;;;;3.42;1.60;;;;;;;;;;4923626;28;20061;-65
2022/04/29 14:40:59;;;;;;;3.72;1.90;;;;;;;;;;4973687;28;20470;-65
2022/04/29 14:43:30;;;;;;;4.00;1.60;;;;;;;;;;4989982;28;20098;-65
2022/04/29 14:46:01;;;;;;;4.50;1.50;;;;;;;;;;4978049;28;20057;-66
2022/04/29 14:48:32;;;;;;;2.63;1.45;;;;;;;;;;4947718;28;20051;-64
2022/04/29 14:51:03;;;;;;;6.60;2.90;;;;;;;;;;4932039;29;20055;-65
2022/04/29 14:53:35;;;;;;;4.35;1.73;;;;;;;;;;4932073;29;20055;-65
2022/04/29 14:56:09;;;;;;;2.83;1.40;;;;;;;;;;4932027;29;20997;-65
2022/04/29 14:58:40;;;;;;;3.42;1.52;;;;;;;;;;4932354;29;20055;-65
2022/04/29 15:01:11;;;;;;;7.68;3.97;;;;;;;;;;4933905;28;20083;-65
2022/04/29 15:03:42;;;;;;;7.97;2.13;;;;;;;;;;4962324;28;20047;-64
2022/04/29 15:06:13;;;;;;;3.97;2.03;;;;;;;;;;4970300;28;20581;-65
2022/04/29 15:08:44;;;;;;;3.88;1.67;;;;;;;;;;4970288;28;20050;-65
2022/04/29 15:16:53;;;;;;;3.78;1.30;;;;;;;;;;4923972;28;20061;-65
2022/04/29 15:19:24;;;;;;;2.53;1.20;;;;;;;;;;4973702;28;20059;-65
2022/04/29 15:21:54;;;;;;;2.70;1.58;;;;;;;;;;4973938;28;20078;-65
2022/04/29 15:24:25;;;;;;;2.40;1.17;;;;;;;;;;4954243;29;20047;-65
2022/04/29 15:26:57;;;;;;;4.20;1.73;;;;;;;;;;4907066;29;20052;-64
2022/04/29 15:29:28;;;;;;;5.85;2.17;;;;;;;;;;4969583;28;20058;-64
2022/04/29 15:31:59;;;;;;;4.28;1.85;;;;;;;;;;4954564;29;20059;-65
2022/04/29 15:34:34;;;;;;;4.30;2.30;;;;;;;;;;4906977;28;20066;-65
2022/04/29 15:37:05;;;;;;;2.22;1.40;;;;;;;;;;4954509;28;20047;-64
2022/04/29 15:39:36;;;;;;;3.75;1.70;;;;;;;;;;4954251;28;20055;-65
2022/04/29 15:42:13;;;;;;;3.53;1.35;;;;;;;;;;4987723;28;20057;-65
2022/04/29 15:44:43;;;;;;;2.65;1.33;;;;;;;;;;4993041;28;20410;-64
2022/04/29 15:47:14;;;;;;;3.15;1.60;;;;;;;;;;5009907;28;20422;-64
2022/04/29 15:49:45;;;;;;;4.95;1.73;;;;;;;;;;4979954;28;20058;-64
2022/04/29 15:52:16;;;;;;;2.92;1.52;;;;;;;;;;5012348;28;20101;-64
2022/04/29 15:54:47;;;;;;;2.33;1.30;;;;;;;;;;4996563;28;20390;-64
2022/04/29 15:57:18;;;;;;;2.47;1.33;;;;;;;;;;4999320;28;20054;-64
2022/04/29 15:59:49;;;;;;;4.18;1.77;;;;;;;;;;5032036;28;20054;-64
2022/04/29 16:02:20;;;;;;;3.17;1.48;;;;;;;;;;5031849;28;20073;-64
2022/04/29 16:04:51;;;;;;;2.70;1.30;;;;;;;;;;5031873;28;20054;-64
2022/04/29 16:07:22;;;;;;;5.85;2.10;;;;;;;;;;5044247;28;20053;-65
2022/04/29 16:09:53;;;;;;;6.90;2.83;;;;;;;;;;5051811;28;20496;-64
2022/04/29 16:12:24;;;;;;;3.47;1.42;;;;;;;;;;5052200;28;20049;-64